Pagina principale
METAR-TAF:

METAR-TAF

Aeroporti :

Aeroporto di Osijek-Klisa

Osijek, Croazia

latitudine: 45-27N, longitudine: 018-48E, altezza: 88 m

Osservazione

Il bollettino è stato emesso 25 minuti fa, alle 02:30 UTC
Vento 3 kt da sud
Temperature 7°C
Umidità 100%
Pressione 1014 hPa
Visibilità: 4000 m
foschia

METAR: LDOS 160230Z 19003KT 4000 BR NSC 07/07 Q1014

Ora: 04:55 (02:55 UTC)

Previsione

Il bollettino è stato emesso 3 ore e 30 minuti fa, alle 23:25 UTC
Previsione valida dal 16 alle 00 UTC al 17 alle 00 UTC
Vento 2 kt da direzioni variabili
Visibilità 10 km o più
nessuna nube inferiore a 1500 m e nessun cumulonembo
Probabilità 30% :
Temporaneamente
dal 16 alle 02 UTC al 16 alle 07 UTC
Visibilità: 1500 m
banchi di nebbia

TAF: LDOS 152325Z 1600/1700 VRB02KT CAVOK TX23/1613Z TN07/1605Z PROB30 TEMPO 1602/1607 1500 BCFG

Osservazioni e previsioni meteorologiche di più di 4000 aeroporti (messaggi METAR e TAF).

Le stazioni disponibili sono rappresentate dai dischi gialli e rossi sulla carta.

Puntare il mouse per vedere il nome della stazione.

Clicca sopra per visualizzare le osservazioni e previsioni meteorologiche.

Per cambiare la mappa : fare clic sui pulsanti verdi con una croce nera per ingrandire, il pulsante verde con un trattino per diminuire, o sulla freccia verde per le mappe adiacenti.


METAR-TAF: